Pleasant Lake, Michigan
Current Conditions -  °F | °C
As of 10:56 PM on Sunday 21 Dec 2014 (Local Time) from KJXN Reporting Station
Haze Haze  
Wind Chill: 20°   Ceiling: Unl
Heat Index: 28°   Visibility: 6mi
Dew Point: 24°   Wind: 8mph
Humidity: 85%   Direction: 130°SE
Pressure: 30.15"   Gusts: NA
Location:  42.38°N, 84.35°W
Report Text: KJXN 220356Z 13007KT 6SM BR CLR M02/M04 A3015 RMK AO2 SLP221 T10221044
Loading
Personal Weather Stations






























Interactive Weather Map New forecast layout! Learn more

10-Day Weather Forecast

Advertisements
Track Severe Weather on mobile